createdAt,value
2018-07-14T00:01:56.032Z,59.10
2018-07-14T00:04:25.539Z,59.60
2018-07-14T00:06:54.225Z,59.70
2018-07-14T00:09:22.919Z,59.20
2018-07-14T00:11:51.816Z,58.70
2018-07-14T00:14:20.535Z,58.50
2018-07-14T00:16:49.240Z,58.30
2018-07-14T00:19:17.918Z,58.40
2018-07-14T00:21:46.563Z,59.10
2018-07-14T00:24:15.793Z,60.00
2018-07-14T00:26:44.435Z,60.00
2018-07-14T00:29:13.166Z,59.00
2018-07-14T00:31:41.841Z,58.70
2018-07-14T00:34:10.471Z,58.30
2018-07-14T00:36:39.132Z,58.20
2018-07-14T00:39:10.053Z,58.20
2018-07-14T00:41:38.864Z,59.00
2018-07-14T00:44:07.630Z,59.20
2018-07-14T00:46:36.349Z,59.10
2018-07-14T00:49:05.214Z,58.40
2018-07-14T00:51:34.171Z,58.20
2018-07-14T00:54:02.908Z,57.20
2018-07-14T00:56:31.570Z,57.20
2018-07-14T00:59:00.212Z,59.20
2018-07-14T01:01:28.915Z,58.40
2018-07-14T01:03:57.601Z,59.10
2018-07-14T01:06:26.263Z,60.00
2018-07-14T01:08:54.960Z,59.30
2018-07-14T01:11:23.597Z,60.10
2018-07-14T01:13:52.338Z,61.10
2018-07-14T01:16:20.961Z,62.10
2018-07-14T01:18:49.580Z,61.80
2018-07-14T01:21:19.005Z,61.60
2018-07-14T01:23:47.689Z,61.90
2018-07-14T01:26:16.295Z,62.00
2018-07-14T01:28:44.917Z,63.40
2018-07-14T01:31:13.617Z,63.00
2018-07-14T01:33:42.250Z,62.20
2018-07-14T01:36:10.929Z,62.30
2018-07-14T01:38:39.553Z,62.00
2018-07-14T01:41:08.172Z,62.90
2018-07-14T01:43:36.786Z,63.80
2018-07-14T01:46:05.779Z,64.20
2018-07-14T01:48:36.815Z,64.30
2018-07-14T01:51:05.466Z,63.80
2018-07-14T01:53:34.163Z,63.40
2018-07-14T01:56:02.826Z,63.70
2018-07-14T01:58:31.542Z,63.80
2018-07-14T02:01:00.258Z,63.70
2018-07-14T02:03:28.930Z,63.80
2018-07-14T02:05:57.611Z,63.60
2018-07-14T02:08:27.295Z,64.00
2018-07-14T02:10:56.032Z,63.90
2018-07-14T02:13:24.690Z,63.60
2018-07-14T02:15:53.319Z,64.00
2018-07-14T02:18:21.969Z,64.20
2018-07-14T02:20:50.637Z,63.90
2018-07-14T02:23:19.269Z,64.10
2018-07-14T02:25:48.908Z,64.20
2018-07-14T02:30:48.057Z,64.40
2018-07-14T02:33:16.731Z,63.80
2018-07-14T02:35:45.432Z,63.70
2018-07-14T02:38:14.095Z,63.60
2018-07-14T02:40:42.756Z,63.40
2018-07-14T02:43:11.413Z,63.30
2018-07-14T02:45:40.124Z,63.30
2018-07-14T02:48:08.763Z,63.20
2018-07-14T02:50:37.509Z,63.10
2018-07-14T02:53:06.212Z,63.30
2018-07-14T02:55:34.850Z,64.10
2018-07-14T02:58:03.588Z,64.30
2018-07-14T03:00:32.278Z,65.00
2018-07-14T03:03:00.973Z,65.20
2018-07-14T03:05:29.649Z,65.60
2018-07-14T03:07:58.306Z,65.60
2018-07-14T03:10:26.961Z,66.00
2018-07-14T03:12:55.818Z,66.30
2018-07-14T03:15:24.441Z,66.30
2018-07-14T03:17:53.139Z,65.70
2018-07-14T03:22:50.192Z,66.60
2018-07-14T03:25:18.876Z,66.90
2018-07-14T03:27:47.529Z,66.90
2018-07-14T03:30:16.169Z,67.40
2018-07-14T03:32:44.864Z,68.10
2018-07-14T03:35:13.543Z,68.80
2018-07-14T03:37:42.196Z,69.20
2018-07-14T03:40:10.854Z,69.50
2018-07-14T03:42:39.512Z,69.60
2018-07-14T03:45:08.164Z,69.80
2018-07-14T03:47:36.953Z,70.10
2018-07-14T03:50:06.227Z,70.70
2018-07-14T03:52:35.014Z,69.90
2018-07-14T03:55:03.804Z,70.30
2018-07-14T03:57:32.458Z,70.40
2018-07-14T04:00:01.180Z,70.30
2018-07-14T04:02:29.875Z,70.00
2018-07-14T04:04:58.509Z,69.80
2018-07-14T04:07:27.172Z,70.40
2018-07-14T04:09:55.846Z,70.20
2018-07-14T04:14:52.864Z,69.40
2018-07-14T04:17:23.168Z,69.30
2018-07-14T04:19:51.836Z,69.40
2018-07-14T04:22:20.488Z,69.40
2018-07-14T04:24:49.160Z,69.50
2018-07-14T04:27:17.860Z,70.40
2018-07-14T04:29:46.541Z,70.40
2018-07-14T04:32:15.240Z,70.30
2018-07-14T04:34:43.977Z,70.30
2018-07-14T04:37:12.631Z,70.20
2018-07-14T04:39:41.300Z,70.30
2018-07-14T04:42:10.025Z,70.60
2018-07-14T04:44:38.707Z,70.70
2018-07-14T04:47:07.436Z,70.90
2018-07-14T04:49:36.070Z,71.00
2018-07-14T04:52:04.780Z,71.60
2018-07-14T04:54:33.416Z,71.70
2018-07-14T04:59:32.009Z,71.90
2018-07-14T05:02:00.656Z,72.00
2018-07-14T05:06:57.648Z,71.90
2018-07-14T05:09:26.273Z,71.70
2018-07-14T05:11:54.960Z,71.80
2018-07-14T05:14:25.006Z,71.90
2018-07-14T05:19:29.624Z,75.70
2018-07-14T05:21:59.391Z,76.90
2018-07-14T05:24:30.013Z,78.40
2018-07-14T05:27:11.876Z,78.70
2018-07-14T05:29:45.504Z,79.30
2018-07-14T05:32:14.248Z,79.30
2018-07-14T05:34:43.211Z,79.40
2018-07-14T05:37:15.450Z,79.20
2018-07-14T05:39:45.336Z,79.20
2018-07-14T05:42:21.501Z,80.70
2018-07-14T05:44:53.416Z,80.20
2018-07-14T05:47:22.113Z,81.10
2018-07-14T05:49:52.551Z,81.10
2018-07-14T05:52:23.604Z,81.30
2018-07-14T05:54:52.429Z,81.80
2018-07-14T05:57:23.215Z,82.20
2018-07-14T05:59:51.924Z,81.30
2018-07-14T06:02:20.595Z,81.10
2018-07-14T06:04:49.288Z,80.60
2018-07-14T06:07:19.020Z,81.10
2018-07-14T06:09:47.861Z,82.60
2018-07-14T06:12:16.577Z,81.70
2018-07-14T06:14:45.560Z,81.20
2018-07-14T06:17:14.307Z,82.00
2018-07-14T06:19:43.016Z,82.40
2018-07-14T06:22:11.673Z,81.70
2018-07-14T06:24:40.328Z,81.40
2018-07-14T06:27:09.108Z,80.00
2018-07-14T06:29:37.781Z,78.60
2018-07-14T06:32:06.482Z,77.80
2018-07-14T06:34:35.176Z,77.40
2018-07-14T06:37:03.925Z,77.70
2018-07-14T06:39:32.559Z,78.10
2018-07-14T06:42:01.298Z,77.60
2018-07-14T06:44:29.929Z,77.30
2018-07-14T06:46:58.590Z,76.70
2018-07-14T06:49:27.291Z,75.80
2018-07-14T06:51:55.948Z,75.70
2018-07-14T06:54:24.634Z,76.10
2018-07-14T06:56:53.461Z,75.50
2018-07-14T06:59:22.124Z,75.20
2018-07-14T07:01:52.945Z,75.20
2018-07-14T07:04:21.591Z,75.30
2018-07-14T07:06:50.261Z,75.50
2018-07-14T07:09:18.937Z,75.40
2018-07-14T07:11:47.611Z,74.90
2018-07-14T07:14:16.284Z,74.10
2018-07-14T07:16:44.962Z,72.60
2018-07-14T07:19:13.640Z,69.30
2018-07-14T07:21:42.348Z,67.30
2018-07-14T07:24:11.497Z,64.50
2018-07-14T07:26:41.820Z,62.20
2018-07-14T07:29:13.552Z,61.10
2018-07-14T07:31:51.364Z,59.10
2018-07-14T07:34:20.199Z,59.00
2018-07-14T07:36:48.932Z,57.70
2018-07-14T07:39:20.707Z,56.00
2018-07-14T07:44:33.064Z,52.80
2018-07-14T07:47:01.911Z,51.40
2018-07-14T07:49:30.581Z,49.90
2018-07-14T07:51:59.292Z,50.30
2018-07-14T07:54:27.964Z,50.10
2018-07-14T07:56:56.681Z,49.20
2018-07-14T07:59:25.523Z,49.40
2018-07-14T08:01:55.652Z,47.50
2018-07-14T08:04:24.832Z,47.40
2018-07-14T08:06:53.511Z,46.90
2018-07-14T08:09:22.483Z,46.50
2018-07-14T08:11:51.754Z,46.20
2018-07-14T08:16:49.826Z,46.60
2018-07-14T08:19:18.601Z,46.50
2018-07-14T08:21:47.329Z,46.50
2018-07-14T08:24:16.039Z,46.60
2018-07-14T08:26:44.829Z,46.50
2018-07-14T08:29:14.245Z,46.40
2018-07-14T08:31:42.912Z,45.70
2018-07-14T08:34:11.657Z,45.40
2018-07-14T08:36:42.118Z,45.40
2018-07-14T08:39:11.145Z,45.10
2018-07-14T08:41:39.793Z,44.90
2018-07-14T08:44:08.461Z,45.10
2018-07-14T08:46:37.180Z,44.30
2018-07-14T08:49:05.904Z,44.10
2018-07-14T08:51:34.652Z,45.00
2018-07-14T08:54:04.425Z,44.80
2018-07-14T08:56:33.132Z,44.40
2018-07-14T08:59:03.988Z,43.50
2018-07-14T09:01:32.673Z,43.60
2018-07-14T09:04:01.313Z,42.90
2018-07-14T09:06:30.025Z,43.30
2018-07-14T09:08:58.718Z,43.50
2018-07-14T09:11:27.369Z,43.00
2018-07-14T09:13:56.057Z,42.40
2018-07-14T09:16:24.781Z,42.20
2018-07-14T09:18:53.531Z,42.40
2018-07-14T09:21:22.222Z,42.30
2018-07-14T09:23:50.908Z,42.00
2018-07-14T09:26:19.574Z,41.40
2018-07-14T09:28:48.313Z,41.20
2018-07-14T09:31:16.964Z,40.30
2018-07-14T09:33:45.646Z,40.40
2018-07-14T09:36:14.344Z,40.60
2018-07-14T09:38:42.994Z,40.10
2018-07-14T09:41:11.687Z,40.00
2018-07-14T09:43:40.656Z,39.70
2018-07-14T09:46:09.322Z,39.60
2018-07-14T09:48:38.017Z,38.70
2018-07-14T09:51:06.761Z,38.20
2018-07-14T09:53:35.416Z,38.00
2018-07-14T09:56:04.124Z,38.50
2018-07-14T09:58:32.821Z,38.60
2018-07-14T10:01:08.037Z,38.20
2018-07-14T10:03:37.556Z,37.20
2018-07-14T10:06:06.370Z,38.10
2018-07-14T10:08:35.147Z,37.60
2018-07-14T10:11:03.892Z,36.50
2018-07-14T10:13:32.605Z,36.10
2018-07-14T10:16:01.323Z,36.40
2018-07-14T10:18:30.018Z,36.00
2018-07-14T10:20:59.379Z,35.40
2018-07-14T10:23:29.030Z,33.60
2018-07-14T10:25:57.737Z,32.70
2018-07-14T10:28:26.493Z,32.70
2018-07-14T10:30:55.203Z,33.20
2018-07-14T10:33:23.886Z,33.20
2018-07-14T10:35:52.503Z,33.90
2018-07-14T10:38:21.128Z,33.40
2018-07-14T10:40:49.761Z,33.20
2018-07-14T10:43:19.245Z,32.80
2018-07-14T10:45:47.888Z,33.00
2018-07-14T10:48:17.101Z,32.90
2018-07-14T10:50:48.792Z,32.10
2018-07-14T10:53:17.503Z,32.00
2018-07-14T10:55:47.240Z,31.10
2018-07-14T10:58:17.251Z,31.40
2018-07-14T11:00:46.095Z,31.00
2018-07-14T11:03:15.339Z,30.00
2018-07-14T11:08:14.229Z,31.80
2018-07-14T11:10:43.736Z,30.40
2018-07-14T11:13:12.447Z,29.10
2018-07-14T11:15:41.912Z,28.10
2018-07-14T11:18:10.562Z,28.40
2018-07-14T11:20:42.849Z,28.90
2018-07-14T11:23:15.262Z,29.70
2018-07-14T11:28:12.304Z,29.70
2018-07-14T11:30:41.109Z,29.60
2018-07-14T11:33:14.331Z,29.60
2018-07-14T11:35:44.022Z,29.60
2018-07-14T11:38:14.956Z,29.10
2018-07-14T11:43:23.371Z,29.20
2018-07-14T11:45:58.568Z,29.30
2018-07-14T11:48:32.205Z,30.20
2018-07-14T11:51:05.082Z,31.30
2018-07-14T11:53:39.407Z,31.10
2018-07-14T11:56:12.530Z,32.00
2018-07-14T11:58:51.298Z,31.40
2018-07-14T12:01:23.668Z,31.30
2018-07-14T12:03:57.368Z,31.50
2018-07-14T12:06:30.120Z,31.60
2018-07-14T12:09:03.071Z,31.90
2018-07-14T12:11:34.105Z,31.40
2018-07-14T12:14:04.716Z,32.20
2018-07-14T12:16:40.070Z,31.70
2018-07-14T12:19:09.547Z,31.50
2018-07-14T12:21:41.759Z,32.20
2018-07-14T12:24:16.139Z,31.60
2018-07-14T12:26:46.674Z,32.10
2018-07-14T12:29:18.123Z,32.10
2018-07-14T12:31:49.224Z,31.60
2018-07-14T12:36:53.632Z,32.10
2018-07-14T12:39:26.108Z,32.10
2018-07-14T12:41:56.664Z,31.60
2018-07-14T12:44:25.916Z,30.90
2018-07-14T12:47:01.869Z,31.90
2018-07-14T12:49:33.988Z,32.10
2018-07-14T12:52:09.336Z,31.20
2018-07-14T12:54:41.082Z,32.00
2018-07-14T12:57:14.466Z,31.20
2018-07-14T12:59:43.853Z,31.00
2018-07-14T13:02:13.250Z,31.00
2018-07-14T13:04:46.196Z,31.10
2018-07-14T13:07:21.029Z,32.00
2018-07-14T13:09:51.026Z,31.30
2018-07-14T13:12:19.972Z,30.80
2018-07-14T13:14:52.440Z,30.40
2018-07-14T13:17:22.040Z,30.00
2018-07-14T13:21:15.072Z,30.20
2018-07-14T13:23:43.703Z,30.30
2018-07-14T13:26:12.349Z,30.00
2018-07-14T13:28:41.168Z,30.60
2018-07-14T13:31:09.788Z,32.20
2018-07-14T13:36:06.772Z,32.60
2018-07-14T13:38:35.456Z,32.20
2018-07-14T13:41:04.260Z,32.60
2018-07-14T13:43:32.935Z,32.70
2018-07-14T13:46:01.580Z,32.90
2018-07-14T13:48:30.216Z,33.20
2018-07-14T13:50:59.205Z,33.30
2018-07-14T13:53:27.857Z,32.70
2018-07-14T13:55:56.498Z,33.10
2018-07-14T13:58:25.144Z,33.10
2018-07-14T14:00:53.771Z,32.80
2018-07-14T14:03:22.376Z,33.60
2018-07-14T14:05:51.056Z,32.70
2018-07-14T14:08:19.668Z,32.70
2018-07-14T14:10:48.284Z,32.70
2018-07-14T14:13:16.928Z,33.10
2018-07-14T14:15:45.617Z,33.40
2018-07-14T14:18:14.289Z,33.50
2018-07-14T14:20:42.931Z,33.80
2018-07-14T14:23:11.547Z,34.10
2018-07-14T14:25:40.194Z,34.30
2018-07-14T14:28:09.076Z,34.50
2018-07-14T14:30:37.956Z,34.30
2018-07-14T14:33:06.702Z,34.30
2018-07-14T14:35:35.288Z,34.50
2018-07-14T14:38:04.060Z,34.30
2018-07-14T14:40:32.732Z,34.00
2018-07-14T14:43:01.452Z,34.30
2018-07-14T14:45:30.068Z,34.40
2018-07-14T14:47:58.708Z,34.00
2018-07-14T14:50:27.325Z,34.50
2018-07-14T14:52:55.960Z,34.60
2018-07-14T14:55:24.619Z,34.60
2018-07-14T14:57:53.239Z,34.70
2018-07-14T15:00:21.892Z,34.50
2018-07-14T15:02:50.520Z,34.40
2018-07-14T15:05:19.135Z,34.40
2018-07-14T15:07:47.745Z,33.80
2018-07-14T15:10:16.366Z,33.70
2018-07-14T15:12:44.996Z,34.30
2018-07-14T15:15:13.616Z,34.30
2018-07-14T15:17:42.281Z,34.30
2018-07-14T15:20:10.960Z,34.70
2018-07-14T15:22:39.844Z,34.30
2018-07-14T15:25:08.472Z,34.80
2018-07-14T15:27:37.095Z,35.00
2018-07-14T15:30:06.580Z,35.30
2018-07-14T15:32:35.307Z,35.10
2018-07-14T15:35:03.987Z,35.30
2018-07-14T15:37:32.588Z,35.10
2018-07-14T15:40:01.209Z,35.30
2018-07-14T15:42:30.060Z,35.30
2018-07-14T15:44:58.676Z,35.40
2018-07-14T15:47:27.292Z,35.50
2018-07-14T15:49:55.912Z,35.70
2018-07-14T15:52:24.532Z,36.20
2018-07-14T15:54:53.195Z,35.60
2018-07-14T15:57:21.889Z,35.70
2018-07-14T15:59:50.488Z,35.80
2018-07-14T16:02:19.159Z,35.70
2018-07-14T16:04:47.771Z,35.80
2018-07-14T16:07:16.424Z,35.60
2018-07-14T16:09:45.120Z,35.10
2018-07-14T16:12:13.724Z,35.60
2018-07-14T16:14:42.340Z,35.50
2018-07-14T16:17:11.131Z,35.40
2018-07-14T16:19:39.764Z,35.60
2018-07-14T16:22:08.615Z,35.70
2018-07-14T16:24:37.244Z,35.60
2018-07-14T16:27:05.940Z,36.20
2018-07-14T16:29:34.692Z,36.60
2018-07-14T16:32:03.320Z,37.00
2018-07-14T16:34:32.052Z,37.50
2018-07-14T16:37:00.771Z,37.60
2018-07-14T16:39:29.408Z,37.60
2018-07-14T16:41:58.040Z,38.00
2018-07-14T16:44:26.665Z,38.10
2018-07-14T16:46:55.300Z,38.30
2018-07-14T16:49:23.916Z,38.90
2018-07-14T16:51:52.608Z,38.70
2018-07-14T16:54:22.100Z,38.10
2018-07-14T16:56:50.760Z,37.60
2018-07-14T16:59:19.408Z,37.00
2018-07-14T17:01:48.012Z,37.40
2018-07-14T17:04:16.626Z,37.70
2018-07-14T17:06:46.068Z,38.00
2018-07-14T17:09:15.368Z,37.80
2018-07-14T17:11:44.837Z,37.90
2018-07-14T17:14:14.544Z,38.10
2018-07-14T17:16:43.969Z,38.10
2018-07-14T17:19:13.345Z,38.40
2018-07-14T17:21:42.533Z,38.80
2018-07-14T17:24:12.247Z,38.90
2018-07-14T17:26:41.644Z,39.30
2018-07-14T17:29:11.041Z,39.60
2018-07-14T17:31:40.300Z,40.30
2018-07-14T17:34:09.150Z,40.00
2018-07-14T17:36:38.486Z,39.70
2018-07-14T17:39:08.422Z,39.50
2018-07-14T17:41:38.289Z,39.00
2018-07-14T17:44:07.943Z,39.10
2018-07-14T17:46:36.937Z,39.00
2018-07-14T17:49:06.163Z,39.00
2018-07-14T17:51:35.156Z,39.40
2018-07-14T17:54:04.524Z,40.50
2018-07-14T17:56:33.644Z,40.60
2018-07-14T17:59:03.055Z,41.30
2018-07-14T18:01:32.421Z,42.00
2018-07-14T18:04:02.091Z,41.80
2018-07-14T18:06:31.369Z,42.60
2018-07-14T18:11:28.765Z,43.50
2018-07-14T18:13:58.221Z,44.40
2018-07-14T18:16:27.767Z,43.80
2018-07-14T18:18:56.964Z,43.80
2018-07-14T18:23:55.747Z,43.10
2018-07-14T18:26:25.203Z,43.30
2018-07-14T18:28:54.192Z,43.30
2018-07-14T18:31:23.617Z,43.40
2018-07-14T18:33:52.837Z,43.70
2018-07-14T18:36:22.264Z,44.40
2018-07-14T18:38:51.813Z,45.00
2018-07-14T18:41:21.100Z,45.50
2018-07-14T18:43:50.247Z,45.70
2018-07-14T18:46:19.507Z,45.70
2018-07-14T18:48:48.389Z,45.80
2018-07-14T18:51:17.852Z,46.00
2018-07-14T18:53:47.175Z,46.20
2018-07-14T18:56:16.552Z,46.40
2018-07-14T18:58:45.832Z,46.80
2018-07-14T19:01:15.167Z,47.30
2018-07-14T19:03:44.052Z,48.30
2018-07-14T19:06:13.636Z,49.30
2018-07-14T19:09:13.515Z,49.90
2018-07-14T19:11:42.196Z,50.40
2018-07-14T19:14:10.840Z,50.80
2018-07-14T19:16:39.543Z,51.00
2018-07-14T19:19:08.244Z,51.30
2018-07-14T19:21:37.908Z,51.30
2018-07-14T19:24:06.955Z,52.00
2018-07-14T19:26:35.553Z,52.60
2018-07-14T19:29:04.165Z,53.10
2018-07-14T19:31:35.534Z,53.20
2018-07-14T19:34:04.149Z,52.50
2018-07-14T19:36:32.769Z,53.00
2018-07-14T19:39:01.401Z,54.60
2018-07-14T19:41:30.017Z,55.50
2018-07-14T19:43:58.620Z,56.50
2018-07-14T19:46:27.237Z,56.80
2018-07-14T19:48:55.852Z,57.50
2018-07-14T19:51:24.479Z,57.70
2018-07-14T19:53:53.119Z,57.90
2018-07-14T19:58:50.707Z,57.50
2018-07-14T20:01:19.413Z,57.70
2018-07-14T20:03:48.032Z,56.70
2018-07-14T20:06:16.785Z,56.50
2018-07-14T20:08:45.452Z,56.60
2018-07-14T20:11:14.101Z,57.60
2018-07-14T20:13:51.198Z,58.70
2018-07-14T20:16:19.952Z,59.20
2018-07-14T20:18:48.589Z,59.90
2018-07-14T20:21:17.231Z,59.90
2018-07-14T20:23:45.899Z,59.80
2018-07-14T20:26:14.616Z,59.90
2018-07-14T20:28:43.256Z,60.40
2018-07-14T20:31:11.888Z,60.20
2018-07-14T20:33:40.584Z,60.10
2018-07-14T20:36:09.271Z,59.30
2018-07-14T20:38:37.880Z,58.70
2018-07-14T20:41:06.563Z,59.20
2018-07-14T20:43:35.275Z,59.00
2018-07-14T20:46:03.960Z,59.20
2018-07-14T20:48:32.622Z,60.90
2018-07-14T20:51:01.308Z,61.80
2018-07-14T20:53:30.282Z,61.90
2018-07-14T20:55:58.991Z,62.20
2018-07-14T20:58:28.228Z,62.30
2018-07-14T21:00:56.925Z,62.70
2018-07-14T21:03:25.612Z,62.90
2018-07-14T21:05:54.523Z,62.80
2018-07-14T21:08:23.168Z,62.50
2018-07-14T21:10:51.900Z,62.80
2018-07-14T21:15:48.800Z,63.30
2018-07-14T21:18:17.509Z,63.50
2018-07-14T21:20:46.154Z,63.40
2018-07-14T21:23:14.860Z,62.20
2018-07-14T21:25:43.497Z,61.40
2018-07-14T21:28:12.128Z,62.50
2018-07-14T21:30:40.755Z,63.70
2018-07-14T21:33:09.388Z,64.40
2018-07-14T21:35:38.020Z,65.00
2018-07-14T21:38:06.659Z,64.00
2018-07-14T21:40:35.367Z,63.50
2018-07-14T21:43:04.016Z,63.50
2018-07-14T21:45:34.275Z,64.00
2018-07-14T21:50:32.683Z,65.00
2018-07-14T21:53:01.923Z,64.80
2018-07-14T21:55:30.532Z,64.50
2018-07-14T21:57:59.196Z,65.30
2018-07-14T22:00:33.680Z,66.10
2018-07-14T22:03:05.418Z,66.20
2018-07-14T22:05:35.889Z,66.20
2018-07-14T22:08:05.006Z,66.50
2018-07-14T22:10:33.706Z,66.90
2018-07-14T22:13:02.416Z,67.60
2018-07-14T22:15:31.128Z,68.50
2018-07-14T22:17:59.789Z,67.40
2018-07-14T22:20:29.918Z,67.30
2018-07-14T22:22:58.548Z,66.90
2018-07-14T22:25:27.292Z,66.60
2018-07-14T22:27:56.976Z,67.20
2018-07-14T22:30:27.034Z,67.70
2018-07-14T22:35:29.636Z,68.60
2018-07-14T22:37:58.328Z,69.20
2018-07-14T22:40:26.924Z,69.90
2018-07-14T22:42:55.536Z,70.20
2018-07-14T22:45:24.142Z,70.30
2018-07-14T22:47:52.764Z,70.20
2018-07-14T22:55:20.147Z,69.40
2018-07-14T22:57:49.136Z,68.80
2018-07-14T23:00:17.844Z,68.40
2018-07-14T23:02:46.460Z,68.70
2018-07-14T23:05:15.873Z,69.40
2018-07-14T23:07:46.097Z,70.10
2018-07-14T23:10:15.660Z,70.80
2018-07-14T23:12:44.288Z,70.30
2018-07-14T23:15:12.932Z,69.50
2018-07-14T23:17:45.925Z,69.00
2018-07-14T23:20:14.598Z,68.60
2018-07-14T23:22:43.256Z,68.40
2018-07-14T23:25:11.977Z,68.10
2018-07-14T23:27:40.612Z,68.60
2018-07-14T23:30:09.280Z,68.40
2018-07-14T23:32:37.952Z,69.70
2018-07-14T23:35:06.665Z,70.30
2018-07-14T23:37:35.385Z,70.90
2018-07-14T23:42:32.688Z,72.40
2018-07-14T23:45:01.317Z,72.70
2018-07-14T23:47:29.947Z,73.10
2018-07-14T23:49:58.592Z,73.20
2018-07-14T23:52:27.260Z,73.60
2018-07-14T23:54:56.007Z,73.90
2018-07-14T23:57:24.645Z,72.40
2018-07-14T23:59:53.372Z,71.50
